createdAt,value
2023-02-06T00:01:07.283Z,100879.03
2023-02-06T00:03:38.330Z,100875.28
2023-02-06T00:06:09.661Z,100888.38
2023-02-06T00:08:40.733Z,100893.38
2023-02-06T00:11:12.782Z,100894.59
2023-02-06T00:13:43.496Z,100889.31
2023-02-06T00:16:29.156Z,100888.81
2023-02-06T00:19:01.675Z,100887.81
2023-02-06T00:21:33.305Z,100890.94
2023-02-06T00:24:05.574Z,100870.03
2023-02-06T00:26:37.027Z,100887.13
2023-02-06T00:29:08.042Z,100875.94
2023-02-06T00:31:39.179Z,100877.56
2023-02-06T00:34:10.285Z,100892.16
2023-02-06T00:36:43.327Z,100875.19
2023-02-06T00:39:14.442Z,100880.13
2023-02-06T00:41:46.794Z,100879.75
2023-02-06T00:44:18.038Z,100878.66
2023-02-06T00:46:48.741Z,100872.13
2023-02-06T00:49:20.637Z,100866.50
2023-02-06T00:51:51.508Z,100865.31
2023-02-06T00:54:22.768Z,100850.47
2023-02-06T00:56:53.952Z,100859.44
2023-02-06T00:59:25.334Z,100856.72
2023-02-06T01:01:56.693Z,100855.19
2023-02-06T01:04:27.728Z,100864.09
2023-02-06T01:06:58.668Z,100840.94
2023-02-06T01:09:29.918Z,100841.44
2023-02-06T01:12:01.039Z,100836.50
2023-02-06T01:14:31.885Z,100833.44
2023-02-06T01:17:03.048Z,100824.84
2023-02-06T01:19:34.461Z,100828.31
2023-02-06T01:22:05.479Z,100822.25
2023-02-06T01:24:36.681Z,100816.94
2023-02-06T01:27:08.030Z,100822.59
2023-02-06T01:29:39.221Z,100820.19
2023-02-06T01:32:10.451Z,100809.19
2023-02-06T01:34:41.957Z,100801.81
2023-02-06T01:37:13.177Z,100800.59
2023-02-06T01:39:44.011Z,100806.69
2023-02-06T01:42:16.786Z,100800.31
2023-02-06T01:44:48.869Z,100810.69
2023-02-06T01:47:20.717Z,100795.03
2023-02-06T01:49:51.215Z,100805.75
2023-02-06T01:52:27.514Z,100796.75
2023-02-06T01:55:05.556Z,100804.53
2023-02-06T01:57:37.546Z,100796.47
2023-02-06T02:00:12.381Z,100798.72
2023-02-06T02:02:49.791Z,100790.00
2023-02-06T02:05:22.436Z,100802.88
2023-02-06T02:08:02.797Z,100810.81
2023-02-06T02:10:34.492Z,100779.78
2023-02-06T02:13:05.542Z,100793.88
2023-02-06T02:16:03.430Z,100780.59
2023-02-06T02:18:54.096Z,100805.16
2023-02-06T02:21:55.803Z,100792.72
2023-02-06T02:24:33.026Z,100779.75
2023-02-06T02:27:22.655Z,100779.88
2023-02-06T02:30:30.426Z,100786.59
2023-02-06T02:33:35.357Z,100786.94
2023-02-06T02:36:17.503Z,100785.59
2023-02-06T02:38:51.926Z,100781.78
2023-02-06T02:41:51.408Z,100787.13
2023-02-06T02:44:37.869Z,100792.50
2023-02-06T02:47:10.983Z,100787.38
2023-02-06T02:49:44.300Z,100789.97
2023-02-06T02:52:17.668Z,100793.19
2023-02-06T02:54:48.632Z,100778.13
2023-02-06T02:57:30.588Z,100780.50
2023-02-06T03:00:03.621Z,100788.66
2023-02-06T03:02:38.350Z,100788.13
2023-02-06T03:05:13.372Z,100792.38
2023-02-06T03:08:10.320Z,100790.53
2023-02-06T03:10:50.940Z,100795.56
2023-02-06T03:13:49.630Z,100791.94
2023-02-06T03:16:31.259Z,100797.69
2023-02-06T03:19:20.197Z,100790.28
2023-02-06T03:21:52.788Z,100784.44
2023-02-06T03:24:27.264Z,100784.44
2023-02-06T03:27:02.274Z,100789.88
2023-02-06T03:29:35.469Z,100794.31
2023-02-06T03:32:19.649Z,100796.41
2023-02-06T03:35:07.476Z,100783.88
2023-02-06T03:37:39.718Z,100785.25
2023-02-06T03:40:11.773Z,100782.63
2023-02-06T03:42:47.138Z,100769.94
2023-02-06T03:45:40.525Z,100778.50
2023-02-06T03:48:15.411Z,100765.59
2023-02-06T03:50:49.416Z,100783.84
2023-02-06T03:53:23.716Z,100780.31
2023-02-06T03:55:58.341Z,100768.44
2023-02-06T03:58:29.978Z,100768.44
2023-02-06T04:01:02.495Z,100770.72
2023-02-06T04:03:34.464Z,100775.72
2023-02-06T04:06:05.653Z,100766.16
2023-02-06T04:08:37.553Z,100767.44
2023-02-06T04:11:08.869Z,100768.19
2023-02-06T04:13:40.057Z,100765.78
2023-02-06T04:16:11.360Z,100764.03
2023-02-06T04:18:42.552Z,100756.69
2023-02-06T04:21:13.278Z,100761.28
2023-02-06T04:23:44.336Z,100763.03
2023-02-06T04:26:15.687Z,100747.47
2023-02-06T04:28:46.785Z,100758.78
2023-02-06T04:31:17.951Z,100757.75
2023-02-06T04:33:48.515Z,100754.31
2023-02-06T04:36:19.651Z,100744.91
2023-02-06T04:38:50.605Z,100731.88
2023-02-06T04:41:25.128Z,100755.19
2023-02-06T04:43:56.263Z,100749.03
2023-02-06T04:46:28.075Z,100740.19
2023-02-06T04:48:58.615Z,100742.03
2023-02-06T04:51:29.826Z,100730.31
2023-02-06T04:54:00.593Z,100732.53
2023-02-06T04:56:31.802Z,100732.19
2023-02-06T04:59:02.891Z,100735.75
2023-02-06T05:01:34.584Z,100731.06
2023-02-06T05:04:06.198Z,100707.81
2023-02-06T05:06:37.902Z,100718.00
2023-02-06T05:09:09.429Z,100719.72
2023-02-06T05:11:40.630Z,100717.81
2023-02-06T05:14:11.396Z,100705.59
2023-02-06T05:16:42.529Z,100697.56
2023-02-06T05:19:13.546Z,100707.22
2023-02-06T05:21:44.378Z,100706.19
2023-02-06T05:24:15.700Z,100705.81
2023-02-06T05:26:47.924Z,100703.53
2023-02-06T05:29:18.957Z,100701.91
2023-02-06T05:31:50.113Z,100700.56
2023-02-06T05:34:24.011Z,100702.53
2023-02-06T05:36:54.448Z,100703.59
2023-02-06T05:39:25.870Z,100695.28
2023-02-06T05:41:56.860Z,100694.88
2023-02-06T05:44:28.118Z,100694.16
2023-02-06T05:46:59.771Z,100699.34
2023-02-06T05:49:31.080Z,100698.94
2023-02-06T05:52:02.388Z,100696.75
2023-02-06T05:54:33.848Z,100684.72
2023-02-06T05:57:05.624Z,100675.53
2023-02-06T05:59:36.939Z,100698.47
2023-02-06T06:02:08.442Z,100693.28
2023-02-06T06:04:38.796Z,100698.41
2023-02-06T06:07:09.794Z,100690.00
2023-02-06T06:09:42.428Z,100680.59
2023-02-06T06:12:13.686Z,100686.22
2023-02-06T06:14:44.375Z,100688.16
2023-02-06T06:17:15.573Z,100670.47
2023-02-06T06:19:46.437Z,100682.25
2023-02-06T06:22:17.683Z,100667.91
2023-02-06T06:24:49.245Z,100694.13
2023-02-06T06:27:20.381Z,100681.47
2023-02-06T06:29:51.746Z,100689.56
2023-02-06T06:32:23.004Z,100692.03
2023-02-06T06:34:53.950Z,100694.44
2023-02-06T06:37:25.336Z,100708.84
2023-02-06T06:39:56.493Z,100692.78
2023-02-06T06:42:27.666Z,100698.97
2023-02-06T06:44:58.596Z,100694.44
2023-02-06T06:47:30.233Z,100696.38
2023-02-06T06:50:01.468Z,100690.03
2023-02-06T06:52:33.584Z,100711.03
2023-02-06T06:55:04.862Z,100721.59
2023-02-06T06:57:35.979Z,100715.00
2023-02-06T07:00:07.736Z,100731.34
2023-02-06T07:02:38.106Z,100738.22
2023-02-06T07:05:09.486Z,100746.66
2023-02-06T07:07:40.889Z,100758.34
2023-02-06T07:10:13.014Z,100759.88
2023-02-06T07:12:44.588Z,100757.25
2023-02-06T07:15:15.750Z,100746.03
2023-02-06T07:17:46.745Z,100766.59
2023-02-06T07:20:18.227Z,100774.03
2023-02-06T07:22:51.244Z,100764.50
2023-02-06T07:25:22.817Z,100765.50
2023-02-06T07:27:54.145Z,100773.09
2023-02-06T07:30:25.471Z,100774.16
2023-02-06T07:32:56.505Z,100766.38
2023-02-06T07:35:27.425Z,100770.28
2023-02-06T07:37:58.999Z,100769.34
2023-02-06T07:40:44.053Z,100779.44
2023-02-06T07:43:16.348Z,100777.59
2023-02-06T07:45:47.870Z,100778.13
2023-02-06T07:48:19.605Z,100779.47
2023-02-06T07:50:50.960Z,100785.19
2023-02-06T07:53:22.559Z,100773.19
2023-02-06T07:55:53.009Z,100781.19
2023-02-06T07:58:24.225Z,100781.56
2023-02-06T08:00:56.349Z,100791.31
2023-02-06T08:03:27.932Z,100795.25
2023-02-06T08:05:58.973Z,100799.72
2023-02-06T08:08:30.129Z,100812.88
2023-02-06T08:11:00.862Z,100810.63
2023-02-06T08:13:31.957Z,100808.81
2023-02-06T08:16:10.175Z,100809.94
2023-02-06T08:18:41.740Z,100818.28
2023-02-06T08:21:15.157Z,100817.28
2023-02-06T08:23:47.340Z,100815.47
2023-02-06T08:26:18.979Z,100820.13
2023-02-06T08:28:52.131Z,100818.72
2023-02-06T08:31:26.480Z,100807.25
2023-02-06T08:33:58.624Z,100816.91
2023-02-06T08:36:33.486Z,100821.78
2023-02-06T08:39:06.144Z,100837.75
2023-02-06T08:41:40.045Z,100817.19
2023-02-06T08:44:18.707Z,100834.28
2023-02-06T08:46:56.198Z,100839.53
2023-02-06T08:49:33.434Z,100830.00
2023-02-06T08:52:04.939Z,100828.53
2023-02-06T08:54:38.746Z,100848.03
2023-02-06T08:57:11.250Z,100850.88
2023-02-06T08:59:43.032Z,100857.00
2023-02-06T09:02:14.413Z,100866.81
2023-02-06T09:04:46.042Z,100865.66
2023-02-06T09:07:17.456Z,100856.34
2023-02-06T09:09:48.283Z,100873.97
2023-02-06T09:12:19.437Z,100873.69
2023-02-06T09:14:51.402Z,100871.69
2023-02-06T09:17:21.977Z,100869.31
2023-02-06T09:19:53.309Z,100870.16
2023-02-06T09:22:24.493Z,100889.84
2023-02-06T09:24:55.864Z,100887.19
2023-02-06T09:27:26.937Z,100881.22
2023-02-06T09:29:58.051Z,100884.69
2023-02-06T09:32:29.054Z,100883.50
2023-02-06T09:35:00.838Z,100862.44
2023-02-06T09:37:35.241Z,100882.44
2023-02-06T09:40:06.525Z,100873.78
2023-02-06T09:42:40.447Z,100881.50
2023-02-06T09:45:32.477Z,100877.78
2023-02-06T09:48:24.646Z,100873.19
2023-02-06T09:51:08.893Z,100875.06
2023-02-06T09:54:01.493Z,100871.34
2023-02-06T09:56:52.897Z,100885.31
2023-02-06T09:59:33.699Z,100855.16
2023-02-06T10:02:07.621Z,100879.25
2023-02-06T10:04:54.330Z,100880.50
2023-02-06T10:07:32.911Z,100878.38
2023-02-06T10:10:20.646Z,100873.72
2023-02-06T10:13:11.535Z,100877.13
2023-02-06T10:15:54.428Z,100889.41
2023-02-06T10:18:41.538Z,100897.16
2023-02-06T10:21:15.454Z,100889.31
2023-02-06T10:24:21.664Z,100883.56
2023-02-06T10:26:55.012Z,100884.41
2023-02-06T10:29:31.837Z,100878.72
2023-02-06T10:32:23.415Z,100870.63
2023-02-06T10:35:06.439Z,100880.53
2023-02-06T10:38:10.719Z,100879.19
2023-02-06T10:40:48.881Z,100881.94
2023-02-06T10:43:46.178Z,100883.31
2023-02-06T10:46:40.523Z,100875.97
2023-02-06T10:49:38.136Z,100874.53
2023-02-06T10:52:31.342Z,100871.69
2023-02-06T10:55:26.196Z,100874.22
2023-02-06T10:58:18.304Z,100862.16
2023-02-06T11:00:51.161Z,100866.50
2023-02-06T11:03:26.194Z,100860.44
2023-02-06T11:05:58.198Z,100861.59
2023-02-06T11:08:41.847Z,100864.38
2023-02-06T11:11:28.286Z,100863.28
2023-02-06T11:14:13.892Z,100875.59
2023-02-06T11:16:45.464Z,100865.50
2023-02-06T11:19:27.981Z,100865.56
2023-02-06T11:22:11.986Z,100859.66
2023-02-06T11:25:03.935Z,100865.88
2023-02-06T11:27:37.051Z,100869.66
2023-02-06T11:30:33.468Z,100867.69
2023-02-06T11:33:38.081Z,100865.34
2023-02-06T11:36:33.209Z,100857.53
2023-02-06T11:39:08.675Z,100860.31
2023-02-06T11:41:39.827Z,100854.91
2023-02-06T11:44:16.210Z,100857.91
2023-02-06T11:46:47.273Z,100855.69
2023-02-06T11:49:28.143Z,100853.22
2023-02-06T11:52:05.309Z,100844.50
2023-02-06T11:54:37.908Z,100843.47
2023-02-06T11:57:39.111Z,100847.19
2023-02-06T12:00:30.285Z,100844.47
2023-02-06T12:03:01.588Z,100841.25
2023-02-06T12:05:37.657Z,100841.22
2023-02-06T12:08:20.021Z,100845.00
2023-02-06T12:10:58.770Z,100840.41
2023-02-06T12:13:39.585Z,100839.34
2023-02-06T12:16:12.890Z,100833.06
2023-02-06T12:18:46.118Z,100833.63
2023-02-06T12:21:26.428Z,100828.16
2023-02-06T12:24:32.612Z,100833.06
2023-02-06T12:27:12.153Z,100829.03
2023-02-06T12:29:58.534Z,100827.75
2023-02-06T12:32:44.117Z,100815.53
2023-02-06T12:35:23.165Z,100822.56
2023-02-06T12:37:58.426Z,100815.81
2023-02-06T12:40:53.880Z,100816.16
2023-02-06T12:43:25.143Z,100793.41
2023-02-06T12:46:06.504Z,100805.00
2023-02-06T12:48:54.563Z,100813.16
2023-02-06T12:51:25.379Z,100815.06
2023-02-06T12:54:03.650Z,100811.25
2023-02-06T12:56:46.366Z,100808.28
2023-02-06T12:59:52.266Z,100816.50
2023-02-06T13:02:31.316Z,100815.69
2023-02-06T13:05:07.251Z,100812.97
2023-02-06T13:07:49.293Z,100789.09
2023-02-06T13:10:23.357Z,100804.31
2023-02-06T13:13:01.759Z,100805.16
2023-02-06T13:15:43.095Z,100802.97
2023-02-06T13:18:41.500Z,100797.81
2023-02-06T13:21:33.601Z,100791.84
2023-02-06T13:24:04.467Z,100796.47
2023-02-06T13:26:52.953Z,100787.22
2023-02-06T13:29:29.117Z,100782.88
2023-02-06T13:32:21.278Z,100784.25
2023-02-06T13:34:52.059Z,100781.84
2023-02-06T13:37:29.117Z,100776.94
2023-02-06T13:40:28.116Z,100787.28
2023-02-06T13:43:02.304Z,100777.81
2023-02-06T13:45:49.061Z,100786.50
2023-02-06T13:48:41.451Z,100784.59
2023-02-06T13:51:31.729Z,100789.50
2023-02-06T13:54:24.142Z,100782.72
2023-02-06T13:57:26.196Z,100775.66
2023-02-06T14:00:06.187Z,100779.72
2023-02-06T14:02:44.001Z,100779.44
2023-02-06T14:05:32.282Z,100775.94
2023-02-06T14:08:27.137Z,100774.53
2023-02-06T14:11:01.421Z,100761.53
2023-02-06T14:14:00.407Z,100772.66
2023-02-06T14:16:44.725Z,100768.06
2023-02-06T14:19:42.615Z,100761.25
2023-02-06T14:22:37.393Z,100761.53
2023-02-06T14:25:33.455Z,100760.72
2023-02-06T14:28:19.154Z,100748.50
2023-02-06T14:30:50.258Z,100754.50
2023-02-06T14:33:39.722Z,100746.31
2023-02-06T14:36:46.376Z,100740.09
2023-02-06T14:39:35.921Z,100738.75
2023-02-06T14:42:25.018Z,100739.56
2023-02-06T14:45:07.655Z,100734.41
2023-02-06T14:47:44.551Z,100727.88
2023-02-06T14:50:32.444Z,100731.94
2023-02-06T14:53:12.022Z,100731.41
2023-02-06T14:55:46.586Z,100729.78
2023-02-06T14:58:30.637Z,100728.94
2023-02-06T15:01:25.701Z,100724.88
2023-02-06T15:04:17.802Z,100722.16
2023-02-06T15:06:56.539Z,100694.47
2023-02-06T15:09:34.856Z,100709.63
2023-02-06T15:12:20.963Z,100706.06
2023-02-06T15:15:04.301Z,100692.78
2023-02-06T15:17:35.917Z,100710.69
2023-02-06T15:20:30.042Z,100711.81
2023-02-06T15:23:17.216Z,100713.16
2023-02-06T15:26:04.675Z,100718.34
2023-02-06T15:28:37.280Z,100715.06
2023-02-06T15:31:19.345Z,100710.72
2023-02-06T15:33:59.619Z,100708.28
2023-02-06T15:36:37.162Z,100701.78
2023-02-06T15:39:11.006Z,100699.31
2023-02-06T15:41:48.170Z,100695.00
2023-02-06T15:44:25.463Z,100706.44
2023-02-06T15:46:57.909Z,100701.78
2023-02-06T15:49:35.697Z,100705.31
2023-02-06T15:52:08.271Z,100702.03
2023-02-06T15:54:43.887Z,100709.41
2023-02-06T15:57:28.693Z,100701.47
2023-02-06T16:00:00.705Z,100699.31
2023-02-06T16:02:39.634Z,100695.50
2023-02-06T16:05:17.773Z,100689.47
2023-02-06T16:07:50.947Z,100695.50
2023-02-06T16:10:24.811Z,100692.22
2023-02-06T16:12:58.809Z,100693.13
2023-02-06T16:15:41.505Z,100687.94
2023-02-06T16:18:29.229Z,100691.75
2023-02-06T16:21:25.876Z,100680.09
2023-02-06T16:24:05.393Z,100692.53
2023-02-06T16:26:45.916Z,100692.81
2023-02-06T16:29:32.268Z,100703.66
2023-02-06T16:32:20.876Z,100688.38
2023-02-06T16:34:53.102Z,100682.44
2023-02-06T16:37:29.808Z,100693.03
2023-02-06T16:40:00.961Z,100685.16
2023-02-06T16:42:38.217Z,100676.50
2023-02-06T16:45:20.384Z,100667.28
2023-02-06T16:47:51.837Z,100688.16
2023-02-06T16:50:23.637Z,100691.69
2023-02-06T16:52:57.383Z,100679.72
2023-02-06T16:55:30.315Z,100667.81
2023-02-06T16:58:03.028Z,100674.28
2023-02-06T17:00:35.269Z,100641.53
2023-02-06T17:03:07.400Z,100670.78
2023-02-06T17:05:38.835Z,100674.31
2023-02-06T17:08:28.121Z,100667.28
2023-02-06T17:10:59.616Z,100676.50
2023-02-06T17:13:31.028Z,100654.31
2023-02-06T17:16:02.202Z,100674.91
2023-02-06T17:18:33.464Z,100672.41
2023-02-06T17:21:04.697Z,100675.97
2023-02-06T17:23:36.668Z,100673.53
2023-02-06T17:26:20.580Z,100658.63
2023-02-06T17:28:53.081Z,100669.19
2023-02-06T17:31:24.946Z,100658.63
2023-02-06T17:33:55.618Z,100685.44
2023-02-06T17:36:34.489Z,100686.84
2023-02-06T17:39:05.851Z,100684.41
2023-02-06T17:41:37.758Z,100684.72
2023-02-06T17:44:09.201Z,100694.78
2023-02-06T17:46:40.834Z,100694.75
2023-02-06T17:49:12.197Z,100688.22
2023-02-06T17:51:44.763Z,100677.34
2023-02-06T17:54:15.816Z,100695.78
2023-02-06T17:56:46.958Z,100700.16
2023-02-06T17:59:18.264Z,100702.03
2023-02-06T18:01:50.299Z,100694.97
2023-02-06T18:04:22.813Z,100699.03
2023-02-06T18:06:53.261Z,100708.00
2023-02-06T18:09:24.857Z,100707.47
2023-02-06T18:11:55.399Z,100696.00
2023-02-06T18:14:26.434Z,100689.75
2023-02-06T18:16:58.176Z,100695.16
2023-02-06T18:19:29.411Z,100697.25
2023-02-06T18:22:00.578Z,100693.69
2023-02-06T18:24:31.660Z,100678.97
2023-02-06T18:27:07.015Z,100700.13
2023-02-06T18:29:49.853Z,100681.53
2023-02-06T18:32:21.791Z,100701.53
2023-02-06T18:34:53.006Z,100690.84
2023-02-06T18:37:24.311Z,100707.44
2023-02-06T18:39:56.814Z,100711.84
2023-02-06T18:42:45.645Z,100700.22
2023-02-06T18:45:16.973Z,100716.22
2023-02-06T18:47:48.601Z,100714.72
2023-02-06T18:50:23.851Z,100709.41
2023-02-06T18:52:55.043Z,100709.34
2023-02-06T18:55:26.817Z,100711.59
2023-02-06T18:57:57.313Z,100714.91
2023-02-06T19:00:28.417Z,100705.16
2023-02-06T19:03:00.740Z,100710.44
2023-02-06T19:05:35.422Z,100710.25
2023-02-06T19:08:07.609Z,100711.84
2023-02-06T19:10:39.070Z,100719.66
2023-02-06T19:13:09.775Z,100727.53
2023-02-06T19:15:41.019Z,100723.88
2023-02-06T19:18:12.190Z,100727.81
2023-02-06T19:20:46.397Z,100720.63
2023-02-06T19:23:17.617Z,100728.16
2023-02-06T19:25:49.058Z,100732.44
2023-02-06T19:28:20.013Z,100735.06
2023-02-06T19:30:51.300Z,100736.56
2023-02-06T19:33:22.764Z,100737.75
2023-02-06T19:35:53.908Z,100729.69
2023-02-06T19:38:25.118Z,100733.69
2023-02-06T19:40:56.100Z,100724.56
2023-02-06T19:43:27.413Z,100726.75
2023-02-06T19:45:58.599Z,100736.38
2023-02-06T19:48:29.752Z,100738.31
2023-02-06T19:51:12.664Z,100731.41
2023-02-06T19:53:47.216Z,100736.09
2023-02-06T19:56:23.859Z,100738.22
2023-02-06T19:59:00.608Z,100739.31
2023-02-06T20:01:36.944Z,100732.44
2023-02-06T20:04:08.739Z,100743.28
2023-02-06T20:06:40.067Z,100731.19
2023-02-06T20:09:11.993Z,100747.38
2023-02-06T20:11:44.318Z,100736.69
2023-02-06T20:14:15.653Z,100737.03
2023-02-06T20:16:48.594Z,100734.28
2023-02-06T20:19:23.311Z,100737.91
2023-02-06T20:21:56.811Z,100728.41
2023-02-06T20:24:31.215Z,100732.81
2023-02-06T20:27:07.198Z,100732.25
2023-02-06T20:29:41.278Z,100739.47
2023-02-06T20:32:13.583Z,100738.91
2023-02-06T20:34:45.037Z,100737.13
2023-02-06T20:37:16.298Z,100747.94
2023-02-06T20:39:47.604Z,100743.91
2023-02-06T20:42:20.836Z,100740.03
2023-02-06T20:44:51.946Z,100737.72
2023-02-06T20:47:22.924Z,100729.78
2023-02-06T20:49:54.199Z,100722.47
2023-02-06T20:52:25.200Z,100729.13
2023-02-06T20:54:56.367Z,100728.72
2023-02-06T20:57:28.091Z,100728.50
2023-02-06T20:59:58.811Z,100719.41
2023-02-06T21:02:30.717Z,100708.06
2023-02-06T21:05:02.617Z,100714.69
2023-02-06T21:07:34.866Z,100706.53
2023-02-06T21:10:06.671Z,100694.47
2023-02-06T21:12:38.154Z,100709.63
2023-02-06T21:15:09.686Z,100703.16
2023-02-06T21:17:41.107Z,100692.69
2023-02-06T21:20:12.696Z,100714.81
2023-02-06T21:22:43.064Z,100708.91
2023-02-06T21:25:14.624Z,100696.72
2023-02-06T21:27:44.982Z,100710.81
2023-02-06T21:30:16.501Z,100712.03
2023-02-06T21:32:47.904Z,100721.00
2023-02-06T21:35:18.962Z,100715.59
2023-02-06T21:37:50.294Z,100718.19
2023-02-06T21:40:22.502Z,100717.00
2023-02-06T21:42:53.641Z,100714.88
2023-02-06T21:45:25.113Z,100721.19
2023-02-06T21:47:56.221Z,100721.91
2023-02-06T21:50:27.810Z,100714.81
2023-02-06T21:52:59.222Z,100714.63
2023-02-06T21:55:33.049Z,100705.81
2023-02-06T21:58:04.923Z,100709.66
2023-02-06T22:00:35.857Z,100708.22
2023-02-06T22:03:06.910Z,100709.78
2023-02-06T22:05:39.465Z,100716.78
2023-02-06T22:08:10.734Z,100715.88
2023-02-06T22:10:41.829Z,100727.44
2023-02-06T22:13:13.157Z,100724.16
2023-02-06T22:15:52.804Z,100729.06
2023-02-06T22:18:24.250Z,100738.59
2023-02-06T22:21:06.511Z,100729.19
2023-02-06T22:23:38.201Z,100734.59
2023-02-06T22:26:11.032Z,100730.91
2023-02-06T22:28:43.266Z,100730.78
2023-02-06T22:31:15.493Z,100730.50
2023-02-06T22:33:46.704Z,100721.56
2023-02-06T22:36:20.065Z,100721.97
2023-02-06T22:38:58.892Z,100730.13
2023-02-06T22:41:30.999Z,100725.91
2023-02-06T22:44:02.382Z,100714.91
2023-02-06T22:46:36.443Z,100723.44
2023-02-06T22:49:08.781Z,100721.97
2023-02-06T22:51:41.342Z,100720.31
2023-02-06T22:54:12.919Z,100717.53
2023-02-06T22:56:43.982Z,100719.44
2023-02-06T22:59:21.227Z,100719.97
2023-02-06T23:02:00.384Z,100719.91
2023-02-06T23:04:36.218Z,100712.06
2023-02-06T23:07:07.970Z,100708.75
2023-02-06T23:09:39.806Z,100704.59
2023-02-06T23:12:12.878Z,100707.50
2023-02-06T23:14:45.362Z,100698.97
2023-02-06T23:17:16.819Z,100699.94
2023-02-06T23:19:47.897Z,100689.25
2023-02-06T23:22:18.708Z,100696.19
2023-02-06T23:24:53.043Z,100686.22
2023-02-06T23:27:24.381Z,100694.09
2023-02-06T23:29:55.438Z,100687.13
2023-02-06T23:32:26.262Z,100677.50
2023-02-06T23:34:57.990Z,100678.94
2023-02-06T23:37:32.210Z,100680.00
2023-02-06T23:40:03.610Z,100675.81
2023-02-06T23:42:34.899Z,100671.63
2023-02-06T23:45:05.743Z,100677.06
2023-02-06T23:47:37.395Z,100666.28
2023-02-06T23:50:08.815Z,100673.19
2023-02-06T23:52:40.257Z,100663.16
2023-02-06T23:55:12.030Z,100673.72
2023-02-06T23:57:43.621Z,100665.88
